Airfield :







YOU CAN JOIN US ON...

 
LOGIN :

Register | Disclaimer

   EN    FR    IT 

 









Legend :    VFR   Marginal VFR   IFR   Intensive IFR   Very Intensive IFR
Visi :
Ceiling :
>= 8 km
>= 3000ft
5 to 8 km
1000 to 3000 ft
1500m to 5 km
500 to 1000 ft
800 to 1500m
200 to 500 ft
< 800m
< 200 ft
Symbols :   Thunderstorms  Fog  Heavy snow  Heavy precipitations  Wind > 20 kt







- Airport Elevation : 160 ft
- IATA code : YYG


CYYG - Charlottetown

CURRENT METAR :
  • 181100Z 33010G16KT 310V020 15SM FEW025 SCT300 17/10 A2994 RMK CU1CI4 CU TR SLP141 DENSITY ALT 500FT

EXPIRED METARs :
  • 181000Z 32003KT 280V350 15SM FEW025 FEW100 FEW250 16/15 A2991 RMK CU1AC1CI1 CU TR AC TR CI TR SLP130 DENSITY ALT 400FT
  • 180900Z 33005KT 15SM FEW020 FEW100 14/13 A2989 RMK CF1AC1 CF TR AC TR PRESRR SLP124 DENSITY ALT 200FT

TAF TAF CYYG
Valid from the 18 at 06:00 until the 18 at 18:00 UTC


180539Z 1806/1818 36010KT P6SM SCT040
TEMPO 1806/1808 BKN040
FM180800 35010KT P6SM FEW050 RMK NXT FCST BY 181200Z
CZQM FIR / North America



MET'MAP, your aeronautical weather chart ! - Copyright ORBIFLY December 2007 - Disclaimer

ORBIFLY MET'MAP TEAM :

Programming & Development : Alexandra Zaïnal
Concept & Development : Baudouin d'Aumeries
Co-Development & Prog : Marc-Olivier Méhu
Technical & hardware support : Manuel Goepfert

Contact : metmap@orbifly.com




SOURCES & CREDITS :

   NOAA